Time;durP1;ratioP1;P1;durP2;ratioP2;P2;SDS_P1;SDS_P2;PMS_P1;PMS_P2;Temp;Humidity;BMP_temperature;BMP_pressure;BME280_temperature;BME280_humidity;BME280_pressure;Samples;Min_cycle;Max_cycle;Signal;HPM_P1;HPM_P2
2022/01/18 00:01:46;;;;;;;13.40;3.80;;;;;;;;;;8431030;28;20055;-75
2022/01/18 00:05:50;;;;;;;16.33;4.45;;;;;;;;;;8430393;28;20302;-75
2022/01/18 00:09:54;;;;;;;8.18;3.63;;;;;;;;;;8430338;28;20052;-74
2022/01/18 00:14:01;;;;;;;8.80;3.70;;;;;;;;;;8430062;28;20044;-75
2022/01/18 00:18:10;;;;;;;10.20;3.65;;;;;;;;;;8430366;28;20055;-75
2022/01/18 00:22:13;;;;;;;10.05;3.85;;;;;;;;;;8430303;28;20380;-75
2022/01/18 00:26:18;;;;;;;15.77;4.13;;;;;;;;;;8430174;28;20469;-75
2022/01/18 00:30:43;;;;;;;8.68;3.63;;;;;;;;;;8430095;28;20529;-76
2022/01/18 00:34:50;;;;;;;8.82;3.28;;;;;;;;;;8429708;28;20491;-74
2022/01/18 00:38:53;;;;;;;12.88;3.75;;;;;;;;;;8429948;28;20055;-75
2022/01/18 00:42:57;;;;;;;12.52;4.65;;;;;;;;;;8429876;28;20147;-76
2022/01/18 00:46:59;;;;;;;10.57;3.95;;;;;;;;;;8429700;28;20048;-75
2022/01/18 00:51:03;;;;;;;11.00;3.53;;;;;;;;;;8430128;28;20052;-75
2022/01/18 00:55:06;;;;;;;9.85;3.75;;;;;;;;;;8429231;28;20067;-74
2022/01/18 00:59:10;;;;;;;11.25;3.95;;;;;;;;;;8423026;28;20036;-77
2022/01/18 01:03:12;;;;;;;15.43;4.10;;;;;;;;;;8421646;28;20052;-74
2022/01/18 01:07:16;;;;;;;15.35;4.00;;;;;;;;;;8423351;28;20044;-77
2022/01/18 01:11:19;;;;;;;10.55;3.30;;;;;;;;;;8424278;28;20056;-74
2022/01/18 01:15:25;;;;;;;12.15;4.82;;;;;;;;;;8428098;28;20063;-75
2022/01/18 01:41:42;;;;;;;13.88;3.97;;;;;;;;;;8392670;28;20055;-76
2022/01/18 01:42:01;;;;;;;7.22;4.00;;;;;;;;;;8432597;28;20047;-77
2022/01/18 01:46:04;;;;;;;10.95;3.72;;;;;;;;;;8431494;28;20043;-75
2022/01/18 01:50:16;;;;;;;22.27;8.15;;;;;;;;;;8431295;28;20052;-76
2022/01/18 01:54:18;;;;;;;13.20;4.20;;;;;;;;;;8429959;28;20048;-74
2022/01/18 01:58:23;;;;;;;12.45;4.28;;;;;;;;;;8430928;28;20068;-75
2022/01/18 02:02:27;;;;;;;17.75;4.28;;;;;;;;;;8428546;28;20040;-75
2022/01/18 02:06:31;;;;;;;11.10;4.05;;;;;;;;;;8433846;28;20079;-74
2022/01/18 02:10:33;;;;;;;20.63;5.75;;;;;;;;;;8430533;28;20071;-75
2022/01/18 02:14:36;;;;;;;13.43;3.63;;;;;;;;;;8432182;28;20072;-74
2022/01/18 02:23:00;;;;;;;17.25;3.92;;;;;;;;;;8430150;28;20051;-75
2022/01/18 02:27:03;;;;;;;13.27;4.68;;;;;;;;;;8426944;28;20048;-76
2022/01/18 02:31:05;;;;;;;14.80;4.43;;;;;;;;;;8429107;28;20127;-75
2022/01/18 02:35:08;;;;;;;17.63;4.45;;;;;;;;;;8431319;28;20044;-74
2022/01/18 02:39:15;;;;;;;16.85;5.25;;;;;;;;;;8428674;28;20048;-74
2022/01/18 02:47:38;;;;;;;15.35;4.55;;;;;;;;;;8431684;28;20040;-76
2022/01/18 02:51:41;;;;;;;17.75;4.90;;;;;;;;;;8430155;28;20044;-76
2022/01/18 02:55:49;;;;;;;22.40;5.47;;;;;;;;;;8432472;28;20495;-78
2022/01/18 03:00:06;;;;;;;21.33;5.05;;;;;;;;;;8432772;28;20044;-76
2022/01/18 03:04:07;;;;;;;24.55;4.50;;;;;;;;;;8430657;28;20044;-74
2022/01/18 03:08:11;;;;;;;15.93;5.22;;;;;;;;;;8429484;28;20055;-73
2022/01/18 03:12:16;;;;;;;16.23;4.93;;;;;;;;;;8430758;28;20044;-74
2022/01/18 03:16:19;;;;;;;13.05;4.72;;;;;;;;;;8430214;28;20609;-75
2022/01/18 03:20:22;;;;;;;18.20;7.60;;;;;;;;;;8430531;28;20484;-74
2022/01/18 03:24:45;;;;;;;13.15;6.05;;;;;;;;;;8431727;28;20040;-74
2022/01/18 03:28:49;;;;;;;15.18;4.70;;;;;;;;;;8431254;28;20488;-73
2022/01/18 03:32:51;;;;;;;19.67;5.95;;;;;;;;;;8431286;28;20055;-73
2022/01/18 03:36:54;;;;;;;14.32;5.93;;;;;;;;;;8431639;28;20389;-77
2022/01/18 03:40:57;;;;;;;20.80;7.18;;;;;;;;;;8431598;28;20498;-75
2022/01/18 03:45:03;;;;;;;21.67;6.68;;;;;;;;;;8431003;28;20052;-74
2022/01/18 03:49:07;;;;;;;19.52;6.80;;;;;;;;;;8430396;28;20055;-77
2022/01/18 03:53:11;;;;;;;25.65;7.95;;;;;;;;;;8430723;28;20059;-77
2022/01/18 03:57:14;;;;;;;22.05;7.65;;;;;;;;;;8430713;28;20055;-74
2022/01/18 04:01:18;;;;;;;22.40;7.90;;;;;;;;;;8430530;28;20059;-75
2022/01/18 04:05:20;;;;;;;24.65;8.73;;;;;;;;;;8430957;28;20044;-74
2022/01/18 04:09:23;;;;;;;19.63;7.53;;;;;;;;;;8430345;28;20126;-75
2022/01/18 04:13:25;;;;;;;30.02;8.68;;;;;;;;;;8430800;28;20047;-78
2022/01/18 04:17:48;;;;;;;28.27;8.48;;;;;;;;;;8430726;28;20078;-76
2022/01/18 04:30:31;;;;;;;17.77;7.25;;;;;;;;;;8430021;28;20561;-74
2022/01/18 04:34:36;;;;;;;19.05;6.97;;;;;;;;;;8430503;28;20044;-73
2022/01/18 04:38:39;;;;;;;19.05;6.65;;;;;;;;;;8430406;28;20071;-75
2022/01/18 04:43:00;;;;;;;24.80;6.97;;;;;;;;;;8429925;28;20040;-76
2022/01/18 04:51:24;;;;;;;21.95;6.32;;;;;;;;;;8429644;28;20055;-74
2022/01/18 04:55:31;;;;;;;9.63;5.45;;;;;;;;;;8430130;28;20054;-74
2022/01/18 04:59:34;;;;;;;12.43;5.68;;;;;;;;;;8432527;28;20131;-76
2022/01/18 05:03:37;;;;;;;16.83;6.00;;;;;;;;;;8436245;28;20044;-74
2022/01/18 05:07:40;;;;;;;23.17;6.53;;;;;;;;;;8436475;28;20052;-75
2022/01/18 05:11:51;;;;;;;25.05;7.40;;;;;;;;;;8436245;28;20044;-76
2022/01/18 05:16:05;;;;;;;18.38;7.07;;;;;;;;;;8435935;28;20475;-75
2022/01/18 05:20:39;;;;;;;26.25;8.32;;;;;;;;;;8435564;28;20044;-74
2022/01/18 05:24:43;;;;;;;31.40;11.95;;;;;;;;;;8435335;28;20044;-76
2022/01/18 05:28:46;;;;;;;29.50;12.40;;;;;;;;;;8435097;28;20085;-75
2022/01/18 05:32:48;;;;;;;43.33;15.90;;;;;;;;;;8435515;28;20419;-75
2022/01/18 05:36:51;;;;;;;35.95;13.50;;;;;;;;;;8435508;28;20048;-75
2022/01/18 05:40:55;;;;;;;37.42;11.15;;;;;;;;;;8434843;28;20044;-76
2022/01/18 05:44:57;;;;;;;30.95;10.10;;;;;;;;;;8435236;28;20040;-75
2022/01/18 05:49:01;;;;;;;36.08;14.30;;;;;;;;;;8434604;28;20064;-74
2022/01/18 05:53:04;;;;;;;42.78;18.85;;;;;;;;;;8434992;28;20047;-73
2022/01/18 05:57:08;;;;;;;45.15;16.75;;;;;;;;;;8434449;28;20395;-73
2022/01/18 06:01:10;;;;;;;28.40;10.40;;;;;;;;;;8434247;28;20059;-73
2022/01/18 06:09:34;;;;;;;22.80;8.20;;;;;;;;;;8433683;28;20067;-74
2022/01/18 06:13:38;;;;;;;15.82;8.45;;;;;;;;;;8433889;28;20399;-75
2022/01/18 06:17:40;;;;;;;29.35;9.35;;;;;;;;;;8434197;28;20056;-75
2022/01/18 06:21:43;;;;;;;22.02;7.97;;;;;;;;;;8434090;28;20051;-74
2022/01/18 06:25:45;;;;;;;33.47;12.23;;;;;;;;;;8407110;28;20132;-73
2022/01/18 06:29:49;;;;;;;26.83;10.40;;;;;;;;;;8433692;28;20128;-73
2022/01/18 06:33:52;;;;;;;22.58;8.98;;;;;;;;;;8430713;28;20048;-77
2022/01/18 06:37:54;;;;;;;22.38;8.40;;;;;;;;;;8433116;28;20533;-76
2022/01/18 06:41:57;;;;;;;21.58;9.02;;;;;;;;;;8432743;28;20040;-75
2022/01/18 06:46:01;;;;;;;17.60;7.90;;;;;;;;;;8433032;28;20051;-75
2022/01/18 06:50:05;;;;;;;14.75;7.70;;;;;;;;;;8432998;28;20449;-76
2022/01/18 06:54:13;;;;;;;21.48;8.77;;;;;;;;;;8432514;28;20048;-76
2022/01/18 06:58:16;;;;;;;14.88;6.63;;;;;;;;;;8432125;28;20434;-76
2022/01/18 07:02:20;;;;;;;23.58;9.82;;;;;;;;;;8428161;28;20063;-74
2022/01/18 07:06:22;;;;;;;31.25;10.23;;;;;;;;;;8430704;28;20044;-76
2022/01/18 07:10:25;;;;;;;35.60;12.27;;;;;;;;;;8426630;28;20441;-75
2022/01/18 07:14:28;;;;;;;29.27;10.10;;;;;;;;;;8429785;28;20051;-79
2022/01/18 07:18:32;;;;;;;34.10;13.32;;;;;;;;;;8431468;28;20051;-77
2022/01/18 07:22:35;;;;;;;19.95;9.07;;;;;;;;;;8429354;28;20483;-78
2022/01/18 07:26:37;;;;;;;27.77;11.57;;;;;;;;;;8423518;28;20052;-76
2022/01/18 07:30:41;;;;;;;31.80;15.48;;;;;;;;;;8427130;28;20044;-77
2022/01/18 07:34:51;;;;;;;28.33;12.32;;;;;;;;;;8422625;28;20044;-75
2022/01/18 07:38:55;;;;;;;36.53;15.18;;;;;;;;;;8423768;28;20047;-76
2022/01/18 07:43:00;;;;;;;22.10;10.45;;;;;;;;;;8422035;28;20128;-76
2022/01/18 07:47:05;;;;;;;18.30;8.23;;;;;;;;;;8430923;28;20054;-76
2022/01/18 07:51:09;;;;;;;27.30;10.43;;;;;;;;;;8427962;28;20043;-72
2022/01/18 07:55:12;;;;;;;17.17;9.70;;;;;;;;;;8428423;28;20400;-73
2022/01/18 07:59:14;;;;;;;19.00;9.10;;;;;;;;;;8428243;28;20356;-73
2022/01/18 08:03:20;;;;;;;28.05;10.30;;;;;;;;;;8428336;28;20052;-75
2022/01/18 08:07:24;;;;;;;18.95;9.10;;;;;;;;;;8430549;28;20044;-74
2022/01/18 08:11:27;;;;;;;22.70;9.35;;;;;;;;;;8429605;28;20515;-73
2022/01/18 08:15:37;;;;;;;21.63;10.73;;;;;;;;;;8430785;28;20522;-75
2022/01/18 08:19:40;;;;;;;19.13;9.18;;;;;;;;;;8430776;28;20059;-74
2022/01/18 08:23:44;;;;;;;18.55;8.05;;;;;;;;;;8430612;28;20058;-74
2022/01/18 08:27:47;;;;;;;21.52;9.73;;;;;;;;;;8430073;28;20554;-74
2022/01/18 08:31:49;;;;;;;25.85;10.27;;;;;;;;;;8430505;28;20051;-75
2022/01/18 08:35:52;;;;;;;20.90;9.63;;;;;;;;;;8436916;28;20479;-73
2022/01/18 08:40:00;;;;;;;28.30;9.23;;;;;;;;;;8436700;28;20079;-74
2022/01/18 08:44:04;;;;;;;19.15;9.07;;;;;;;;;;8436688;28;20048;-74
2022/01/18 08:48:06;;;;;;;18.77;9.10;;;;;;;;;;8437169;28;20044;-75
2022/01/18 08:52:09;;;;;;;29.50;11.15;;;;;;;;;;8436497;28;20487;-74
2022/01/18 08:56:14;;;;;;;24.15;9.73;;;;;;;;;;8436366;28;20078;-75
2022/01/18 09:00:18;;;;;;;23.88;11.18;;;;;;;;;;8436684;28;20050;-74
2022/01/18 09:04:21;;;;;;;29.00;12.18;;;;;;;;;;8436020;28;20048;-74
2022/01/18 09:08:25;;;;;;;25.52;10.77;;;;;;;;;;8435923;28;20055;-75
2022/01/18 09:12:29;;;;;;;15.00;7.80;;;;;;;;;;8434360;28;20043;-74
2022/01/18 09:16:41;;;;;;;26.52;9.82;;;;;;;;;;8425131;28;20441;-75
2022/01/18 09:21:07;;;;;;;20.25;9.02;;;;;;;;;;8431502;28;20480;-76
2022/01/18 09:25:17;;;;;;;20.60;8.43;;;;;;;;;;8434831;28;20040;-74
2022/01/18 09:29:29;;;;;;;17.70;8.18;;;;;;;;;;8426199;28;20123;-75
2022/01/18 09:33:59;;;;;;;15.43;7.30;;;;;;;;;;8417454;28;20412;-74
2022/01/18 09:38:16;;;;;;;23.10;6.90;;;;;;;;;;8428099;28;20040;-76
2022/01/18 09:42:40;;;;;;;20.73;9.43;;;;;;;;;;8420399;28;20049;-75
2022/01/18 09:46:54;;;;;;;18.50;7.25;;;;;;;;;;8400233;28;20048;-74
2022/01/18 09:51:38;;;;;;;16.10;6.68;;;;;;;;;;8400641;28;20057;-75
2022/01/18 09:56:04;;;;;;;22.23;8.07;;;;;;;;;;8400694;28;20041;-74
2022/01/18 10:00:31;;;;;;;21.52;8.23;;;;;;;;;;8400286;28;20127;-76
2022/01/18 10:05:22;;;;;;;14.82;8.52;;;;;;;;;;8400274;28;20048;-75
2022/01/18 10:09:32;;;;;;;19.65;7.45;;;;;;;;;;8402144;28;20048;-74
2022/01/18 10:13:52;;;;;;;19.40;9.13;;;;;;;;;;8416787;28;20476;-74
2022/01/18 10:18:25;;;;;;;15.57;7.47;;;;;;;;;;8430823;28;20042;-74
2022/01/18 10:22:54;;;;;;;11.25;6.13;;;;;;;;;;8410077;28;20080;-75
2022/01/18 10:27:14;;;;;;;22.48;7.03;;;;;;;;;;8419243;28;20060;-75
2022/01/18 10:31:38;;;;;;;13.90;6.15;;;;;;;;;;8432739;28;20056;-76
2022/01/18 10:36:08;;;;;;;12.15;5.85;;;;;;;;;;8432643;28;20115;-76
2022/01/18 10:40:36;;;;;;;21.38;8.70;;;;;;;;;;8421486;28;20040;-75
2022/01/18 10:44:47;;;;;;;18.75;7.55;;;;;;;;;;8422428;28;20097;-74
2022/01/18 10:48:51;;;;;;;15.75;7.72;;;;;;;;;;8420345;28;20407;-76
2022/01/18 10:52:56;;;;;;;27.48;8.95;;;;;;;;;;8428469;28;20452;-76
2022/01/18 10:57:11;;;;;;;19.25;8.35;;;;;;;;;;8383749;28;20438;-75
2022/01/18 11:01:22;;;;;;;22.98;11.20;;;;;;;;;;8431622;28;20130;-75
2022/01/18 11:05:43;;;;;;;15.18;7.85;;;;;;;;;;8431354;28;20087;-73
2022/01/18 11:09:51;;;;;;;15.25;6.85;;;;;;;;;;8428601;28;20494;-74
2022/01/18 11:14:01;;;;;;;21.20;8.20;;;;;;;;;;8413903;28;20068;-75
2022/01/18 11:18:15;;;;;;;22.27;8.73;;;;;;;;;;8418409;28;20044;-75
2022/01/18 11:22:19;;;;;;;23.10;8.77;;;;;;;;;;8424952;28;20180;-77
2022/01/18 11:26:24;;;;;;;25.73;8.85;;;;;;;;;;8427742;28;20049;-77
2022/01/18 11:30:31;;;;;;;15.98;7.45;;;;;;;;;;8428961;28;20074;-75
2022/01/18 11:34:50;;;;;;;20.88;8.40;;;;;;;;;;8429085;28;20043;-73
2022/01/18 11:38:57;;;;;;;23.83;9.77;;;;;;;;;;8427387;28;20557;-74
2022/01/18 11:43:02;;;;;;;31.33;13.70;;;;;;;;;;8425754;28;20472;-75
2022/01/18 11:47:10;;;;;;;32.72;11.10;;;;;;;;;;8429037;28;20070;-75
2022/01/18 11:51:17;;;;;;;23.30;10.20;;;;;;;;;;8428073;28;20127;-74
2022/01/18 11:55:37;;;;;;;26.38;10.88;;;;;;;;;;8425428;28;20040;-76
2022/01/18 11:59:41;;;;;;;29.77;9.82;;;;;;;;;;8426364;28;20416;-74
2022/01/18 12:03:49;;;;;;;21.15;8.75;;;;;;;;;;8427716;28;20085;-75
2022/01/18 12:07:58;;;;;;;24.67;12.23;;;;;;;;;;8427925;28;20066;-75
2022/01/18 12:12:01;;;;;;;32.00;10.57;;;;;;;;;;8425695;28;20373;-76
2022/01/18 12:16:18;;;;;;;25.60;9.85;;;;;;;;;;8428045;28;20048;-75
2022/01/18 12:20:50;;;;;;;24.17;8.95;;;;;;;;;;8425247;28;20087;-76
2022/01/18 12:25:30;;;;;;;20.00;9.93;;;;;;;;;;8386223;28;20052;-77
2022/01/18 12:29:50;;;;;;;32.92;10.15;;;;;;;;;;8426520;28;20486;-73
2022/01/18 12:33:59;;;;;;;25.92;11.00;;;;;;;;;;8425024;28;20048;-75
2022/01/18 12:38:10;;;;;;;27.58;10.77;;;;;;;;;;8427802;28;20046;-73
2022/01/18 12:44:20;;;;;;;25.70;10.48;;;;;;;;;;8427608;28;20502;-74
2022/01/18 12:46:39;;;;;;;17.90;8.95;;;;;;;;;;8425006;28;20529;-78
2022/01/18 12:50:44;;;;;;;19.25;8.77;;;;;;;;;;8427113;28;20060;-77
2022/01/18 12:54:50;;;;;;;23.48;10.00;;;;;;;;;;8425608;28;20068;-75
2022/01/18 12:58:53;;;;;;;29.50;10.63;;;;;;;;;;8402138;28;20036;-74
2022/01/18 13:03:00;;;;;;;23.17;10.20;;;;;;;;;;8428805;28;20391;-75
2022/01/18 13:07:06;;;;;;;28.80;9.90;;;;;;;;;;8427519;28;20040;-75
2022/01/18 13:11:13;;;;;;;25.30;10.57;;;;;;;;;;8428075;28;20086;-74
2022/01/18 13:15:33;;;;;;;24.63;9.98;;;;;;;;;;8429412;28;20072;-74
2022/01/18 13:24:08;;;;;;;23.75;9.20;;;;;;;;;;8434525;28;20044;-74
2022/01/18 13:28:18;;;;;;;26.23;10.63;;;;;;;;;;8435183;28;20072;-76
2022/01/18 13:32:27;;;;;;;30.75;11.05;;;;;;;;;;8425668;28;20430;-74
2022/01/18 13:36:32;;;;;;;29.23;11.13;;;;;;;;;;8399930;28;20123;-75
2022/01/18 13:40:37;;;;;;;32.08;11.30;;;;;;;;;;8399999;28;20480;-74
2022/01/18 13:45:09;;;;;;;42.42;13.45;;;;;;;;;;8401382;28;20041;-74
2022/01/18 13:49:13;;;;;;;32.38;11.30;;;;;;;;;;8424244;28;20043;-76
2022/01/18 13:53:19;;;;;;;33.13;11.93;;;;;;;;;;8433056;28;20052;-73
2022/01/18 13:57:23;;;;;;;27.60;10.70;;;;;;;;;;8434570;28;20044;-74
2022/01/18 14:01:29;;;;;;;43.15;17.10;;;;;;;;;;8431604;28;20044;-77
2022/01/18 14:05:34;;;;;;;58.40;23.48;;;;;;;;;;8430260;28;20056;-76
2022/01/18 14:09:38;;;;;;;60.40;33.47;;;;;;;;;;8431660;28;20048;-75
2022/01/18 14:13:41;;;;;;;50.40;17.20;;;;;;;;;;8430902;28;20048;-75
2022/01/18 14:17:45;;;;;;;43.05;15.95;;;;;;;;;;8433789;28;20044;-78
2022/01/18 14:21:50;;;;;;;23.20;12.82;;;;;;;;;;8434102;28;20048;-77
2022/01/18 14:25:53;;;;;;;31.58;14.50;;;;;;;;;;8424892;28;20055;-76
2022/01/18 14:29:59;;;;;;;31.80;12.20;;;;;;;;;;8430093;28;20052;-74
2022/01/18 14:34:03;;;;;;;40.17;16.17;;;;;;;;;;8395821;28;20045;-76
2022/01/18 14:38:09;;;;;;;50.88;20.13;;;;;;;;;;8403929;28;20044;-74
2022/01/18 14:42:13;;;;;;;46.38;17.92;;;;;;;;;;8411152;28;20434;-75
2022/01/18 14:46:37;;;;;;;60.17;26.08;;;;;;;;;;8399851;28;20091;-76
2022/01/18 14:50:44;;;;;;;41.38;18.95;;;;;;;;;;8426658;28;20047;-75
2022/01/18 14:54:47;;;;;;;48.03;17.90;;;;;;;;;;8430765;28;20044;-77
2022/01/18 14:58:57;;;;;;;101.90;37.33;;;;;;;;;;8432898;28;20051;-76
2022/01/18 15:03:06;;;;;;;66.82;25.00;;;;;;;;;;8432208;28;20043;-76
2022/01/18 15:07:11;;;;;;;162.10;56.20;;;;;;;;;;8432280;28;20122;-74
2022/01/18 15:11:15;;;;;;;65.55;25.67;;;;;;;;;;8432072;28;20131;-76
2022/01/18 15:15:24;;;;;;;97.07;32.22;;;;;;;;;;8431732;28;20048;-73
2022/01/18 15:19:30;;;;;;;89.00;33.37;;;;;;;;;;8431899;28;20419;-74
2022/01/18 15:23:39;;;;;;;93.53;33.55;;;;;;;;;;8431458;28;20044;-77
2022/01/18 15:27:45;;;;;;;156.45;50.35;;;;;;;;;;8431463;28;20529;-76
2022/01/18 15:31:48;;;;;;;177.65;49.00;;;;;;;;;;8431296;28;20048;-74
2022/01/18 15:35:56;;;;;;;78.22;28.95;;;;;;;;;;8423697;28;20048;-75
2022/01/18 15:40:07;;;;;;;55.00;25.38;;;;;;;;;;8402435;28;20102;-75
2022/01/18 15:44:12;;;;;;;66.07;25.85;;;;;;;;;;8396370;28;20072;-74
2022/01/18 15:48:19;;;;;;;60.42;23.60;;;;;;;;;;8397008;28;20468;-76
2022/01/18 15:52:25;;;;;;;44.53;19.27;;;;;;;;;;8396574;28;20139;-74
2022/01/18 15:56:49;;;;;;;99.20;35.75;;;;;;;;;;8396754;28;20048;-75
2022/01/18 16:00:53;;;;;;;57.40;21.75;;;;;;;;;;8396794;28;20063;-75
2022/01/18 16:04:58;;;;;;;84.88;25.70;;;;;;;;;;8409736;28;20105;-75
2022/01/18 16:09:02;;;;;;;80.78;29.33;;;;;;;;;;8428157;28;20040;-76
2022/01/18 16:13:07;;;;;;;90.38;34.22;;;;;;;;;;8421411;28;20135;-78
2022/01/18 16:17:11;;;;;;;116.18;41.83;;;;;;;;;;8430068;28;20044;-76
2022/01/18 16:21:17;;;;;;;72.95;29.00;;;;;;;;;;8428332;28;20055;-74
2022/01/18 16:25:21;;;;;;;55.10;21.80;;;;;;;;;;8429680;28;20490;-75
2022/01/18 16:29:26;;;;;;;55.50;22.35;;;;;;;;;;8420287;28;20044;-74
2022/01/18 16:33:30;;;;;;;86.50;35.25;;;;;;;;;;8421411;28;20047;-76
2022/01/18 16:37:33;;;;;;;67.80;27.45;;;;;;;;;;8404314;28;20052;-76
2022/01/18 16:41:37;;;;;;;57.65;24.60;;;;;;;;;;8400553;28;20048;-75
2022/01/18 16:45:41;;;;;;;132.98;45.35;;;;;;;;;;8404216;28;20059;-75
2022/01/18 16:49:44;;;;;;;46.60;19.95;;;;;;;;;;8400509;28;20533;-73
2022/01/18 16:53:47;;;;;;;60.83;23.17;;;;;;;;;;8405797;28;20079;-76
2022/01/18 16:57:57;;;;;;;63.78;24.48;;;;;;;;;;8408230;28;20051;-75
2022/01/18 17:02:04;;;;;;;58.10;22.08;;;;;;;;;;8401337;28;20060;-76
2022/01/18 17:06:19;;;;;;;41.63;17.27;;;;;;;;;;8406785;28;20556;-74
2022/01/18 17:10:22;;;;;;;57.67;25.73;;;;;;;;;;8407556;28;20051;-74
2022/01/18 17:14:27;;;;;;;143.90;51.03;;;;;;;;;;8409106;28;20054;-74
2022/01/18 17:18:35;;;;;;;183.98;60.35;;;;;;;;;;8411311;28;20054;-75
2022/01/18 17:22:48;;;;;;;76.15;28.13;;;;;;;;;;8406998;28;20044;-76
2022/01/18 17:26:56;;;;;;;217.32;65.93;;;;;;;;;;8403111;28;20490;-74
2022/01/18 17:30:59;;;;;;;62.33;23.17;;;;;;;;;;8413074;28;20036;-73
2022/01/18 17:35:04;;;;;;;77.13;25.45;;;;;;;;;;8408744;28;20503;-74
2022/01/18 17:39:09;;;;;;;74.25;27.77;;;;;;;;;;8408514;28;20408;-75
2022/01/18 17:43:16;;;;;;;65.35;23.08;;;;;;;;;;8413526;28;20048;-75
2022/01/18 17:47:19;;;;;;;67.53;24.75;;;;;;;;;;8400400;28;20053;-76
2022/01/18 17:51:23;;;;;;;53.25;20.45;;;;;;;;;;8405167;28;20423;-75
2022/01/18 17:55:27;;;;;;;70.30;25.05;;;;;;;;;;8399874;28;20063;-75
2022/01/18 17:59:30;;;;;;;41.58;17.73;;;;;;;;;;8403068;28;20068;-76
2022/01/18 18:03:56;;;;;;;74.68;27.27;;;;;;;;;;8404708;28;20053;-76
2022/01/18 18:08:02;;;;;;;65.07;24.55;;;;;;;;;;8402222;28;20048;-76
2022/01/18 18:12:09;;;;;;;65.88;24.75;;;;;;;;;;8397801;28;20163;-75
2022/01/18 18:16:12;;;;;;;54.42;19.60;;;;;;;;;;8399024;28;20542;-76
2022/01/18 18:20:16;;;;;;;56.83;20.00;;;;;;;;;;8406282;28;20044;-76
2022/01/18 18:24:23;;;;;;;83.90;29.40;;;;;;;;;;8403915;28;20041;-77
2022/01/18 18:28:26;;;;;;;57.00;19.98;;;;;;;;;;8407476;28;20041;-76
2022/01/18 18:32:29;;;;;;;32.83;11.57;;;;;;;;;;8399711;28;20455;-77
2022/01/18 18:36:32;;;;;;;69.68;24.40;;;;;;;;;;8397385;28;20531;-76
2022/01/18 18:40:45;;;;;;;42.10;15.85;;;;;;;;;;8403491;28;20519;-75
2022/01/18 18:44:54;;;;;;;40.35;14.75;;;;;;;;;;8396555;28;20043;-75
2022/01/18 18:49:01;;;;;;;35.92;15.35;;;;;;;;;;8396372;28;20051;-77
2022/01/18 18:53:07;;;;;;;33.03;13.32;;;;;;;;;;8422554;28;20071;-75
2022/01/18 18:57:18;;;;;;;32.83;16.08;;;;;;;;;;8431941;28;20396;-75
2022/01/18 19:01:42;;;;;;;22.67;10.83;;;;;;;;;;8418957;28;20399;-75
2022/01/18 19:05:54;;;;;;;27.38;11.43;;;;;;;;;;8416196;28;20703;-74
2022/01/18 19:10:06;;;;;;;28.65;12.30;;;;;;;;;;8405444;28;20111;-75
2022/01/18 19:14:12;;;;;;;25.75;10.98;;;;;;;;;;8396016;28;20420;-74
2022/01/18 19:18:18;;;;;;;28.90;11.13;;;;;;;;;;8397697;28;20435;-74
2022/01/18 19:22:21;;;;;;;56.05;19.30;;;;;;;;;;8398003;28;20131;-74
2022/01/18 19:26:25;;;;;;;74.00;24.58;;;;;;;;;;8402431;28;20040;-76
2022/01/18 19:30:31;;;;;;;138.27;34.80;;;;;;;;;;8407916;28;20044;-75
2022/01/18 19:34:34;;;;;;;60.67;18.67;;;;;;;;;;8409384;28;20052;-74
2022/01/18 19:38:38;;;;;;;69.05;21.90;;;;;;;;;;8410219;28;20052;-73
2022/01/18 19:42:43;;;;;;;29.17;12.02;;;;;;;;;;8403833;28;20044;-74
2022/01/18 19:46:53;;;;;;;52.08;20.05;;;;;;;;;;8411492;28;20036;-75
2022/01/18 19:50:58;;;;;;;84.55;27.02;;;;;;;;;;8420359;28;20526;-73
2022/01/18 19:55:09;;;;;;;38.80;13.93;;;;;;;;;;8404915;28;20477;-73
2022/01/18 19:59:13;;;;;;;73.93;26.42;;;;;;;;;;8402960;28;20037;-75
2022/01/18 20:03:25;;;;;;;43.55;18.17;;;;;;;;;;8407822;28;20043;-74
2022/01/18 20:07:28;;;;;;;61.72;21.60;;;;;;;;;;8421746;28;20048;-74
2022/01/18 20:11:38;;;;;;;34.08;15.88;;;;;;;;;;8430183;28;20052;-74
2022/01/18 20:15:43;;;;;;;53.03;20.45;;;;;;;;;;8417866;28;20098;-75
2022/01/18 20:19:48;;;;;;;35.72;15.45;;;;;;;;;;8428902;28;20108;-74
2022/01/18 20:23:53;;;;;;;51.67;19.02;;;;;;;;;;8427533;28;20040;-73
2022/01/18 20:27:56;;;;;;;34.45;12.13;;;;;;;;;;8429653;28;20051;-74
2022/01/18 20:32:02;;;;;;;61.05;23.52;;;;;;;;;;8428587;28;20121;-75
2022/01/18 20:36:14;;;;;;;32.28;14.68;;;;;;;;;;8424487;28;20044;-75
2022/01/18 20:40:25;;;;;;;26.65;12.30;;;;;;;;;;8425885;28;20040;-75
2022/01/18 20:44:29;;;;;;;42.95;17.85;;;;;;;;;;8423179;28;20044;-74
2022/01/18 20:48:36;;;;;;;38.50;14.57;;;;;;;;;;8415371;28;20119;-76
2022/01/18 20:52:46;;;;;;;29.98;12.77;;;;;;;;;;8410178;28;20040;-76
2022/01/18 20:56:51;;;;;;;31.80;14.75;;;;;;;;;;8412805;28;20488;-79
2022/01/18 21:00:55;;;;;;;33.03;15.73;;;;;;;;;;8412476;28;20062;-77
2022/01/18 21:05:01;;;;;;;44.60;14.95;;;;;;;;;;8414968;28;20093;-74
2022/01/18 21:09:07;;;;;;;56.15;20.70;;;;;;;;;;8429026;28;20458;-73
2022/01/18 21:13:15;;;;;;;61.47;24.63;;;;;;;;;;8429253;28;20052;-73
2022/01/18 21:17:22;;;;;;;30.90;14.07;;;;;;;;;;8429274;28;20051;-76
2022/01/18 21:21:25;;;;;;;58.85;23.40;;;;;;;;;;8429319;28;20044;-74
2022/01/18 21:25:30;;;;;;;38.72;16.02;;;;;;;;;;8429259;28;20052;-74
2022/01/18 21:29:35;;;;;;;45.88;17.85;;;;;;;;;;8429240;28;20048;-74
2022/01/18 21:33:38;;;;;;;62.53;25.73;;;;;;;;;;8429044;28;20044;-74
2022/01/18 21:37:41;;;;;;;70.18;28.63;;;;;;;;;;8429159;28;20044;-75
2022/01/18 21:41:46;;;;;;;56.83;22.75;;;;;;;;;;8431422;28;20048;-76
2022/01/18 21:45:49;;;;;;;50.47;18.80;;;;;;;;;;8435439;28;20044;-74
2022/01/18 21:49:52;;;;;;;37.38;14.52;;;;;;;;;;8435341;28;20483;-73
2022/01/18 21:53:56;;;;;;;46.38;20.75;;;;;;;;;;8434580;28;20052;-74
2022/01/18 21:58:00;;;;;;;49.28;17.38;;;;;;;;;;8435019;28;20044;-74
2022/01/18 22:02:03;;;;;;;65.78;22.90;;;;;;;;;;8434380;28;20055;-74
2022/01/18 22:06:08;;;;;;;38.92;17.00;;;;;;;;;;8434141;28;20048;-73
2022/01/18 22:10:14;;;;;;;52.45;17.10;;;;;;;;;;8434064;28;20055;-74
2022/01/18 22:14:18;;;;;;;50.15;21.48;;;;;;;;;;8434536;28;20052;-74
2022/01/18 22:18:21;;;;;;;49.30;20.45;;;;;;;;;;8434339;28;20407;-74
2022/01/18 22:22:23;;;;;;;47.97;17.27;;;;;;;;;;8433789;28;20407;-73
2022/01/18 22:26:26;;;;;;;61.08;25.00;;;;;;;;;;8433399;28;20051;-75
2022/01/18 22:30:30;;;;;;;86.32;33.42;;;;;;;;;;8433921;28;20097;-74
2022/01/18 22:34:33;;;;;;;50.67;18.65;;;;;;;;;;8433216;28;20044;-72
2022/01/18 22:38:36;;;;;;;47.67;19.17;;;;;;;;;;8433689;28;20071;-74
2022/01/18 22:42:39;;;;;;;44.53;17.65;;;;;;;;;;8433544;28;20476;-73
2022/01/18 22:46:43;;;;;;;53.42;20.00;;;;;;;;;;8433421;28;20058;-75
2022/01/18 22:50:47;;;;;;;42.20;16.70;;;;;;;;;;8432863;28;20055;-74
2022/01/18 22:54:49;;;;;;;36.55;13.60;;;;;;;;;;8432576;28;20552;-72
2022/01/18 22:58:52;;;;;;;41.15;13.85;;;;;;;;;;8432478;28;20055;-73
2022/01/18 23:02:56;;;;;;;31.00;13.05;;;;;;;;;;8432919;28;20047;-75
2022/01/18 23:06:59;;;;;;;47.50;19.38;;;;;;;;;;8432820;28;20451;-72
2022/01/18 23:11:01;;;;;;;37.22;13.27;;;;;;;;;;8432006;28;20048;-74
2022/01/18 23:15:05;;;;;;;32.83;14.02;;;;;;;;;;8431954;28;20055;-74
2022/01/18 23:19:09;;;;;;;43.97;16.02;;;;;;;;;;8431544;28;20519;-75
2022/01/18 23:23:11;;;;;;;42.88;16.08;;;;;;;;;;8432275;28;20479;-74
2022/01/18 23:27:14;;;;;;;62.83;19.13;;;;;;;;;;8431500;28;20075;-74
2022/01/18 23:31:16;;;;;;;91.15;28.02;;;;;;;;;;8431545;28;20059;-73
2022/01/18 23:35:21;;;;;;;63.63;19.70;;;;;;;;;;8431465;28;20484;-73
2022/01/18 23:39:29;;;;;;;62.67;19.25;;;;;;;;;;8431814;28;20070;-73
2022/01/18 23:43:31;;;;;;;48.17;14.23;;;;;;;;;;8431753;28;20101;-73
2022/01/18 23:47:34;;;;;;;46.08;14.98;;;;;;;;;;8431589;28;20472;-74
2022/01/18 23:51:38;;;;;;;48.03;15.88;;;;;;;;;;8431516;28;20544;-74
2022/01/18 23:55:40;;;;;;;45.38;15.38;;;;;;;;;;8431237;28;20048;-73
2022/01/18 23:59:43;;;;;;;56.13;16.10;;;;;;;;;;8431303;28;20048;-74
